KGNB

Details ICAO KGNB
Name GRANBY GRAND CO
Region United States
Timezone America/Denver (UTC-7.0)
Plans Departing 1
Arriving 3
Stats Elevation 8,203 ft / 2,500 m (AMSL)
Location 40.089708° -105.917237°
Runways 1
Magnetic Variation 8.723° E
Sunrise 2017-12-11 14:17:21 UTC / 2017-12-11 07:17:21 Local
Sunset 2017-12-11 23:39:40 UTC / 2017-12-11 16:39:40 Local
Advertisement - Login to hide

Runways

ID Width Length Bearing (true) Bearing (mag) Surface Threshold Offset Overrun Length
09 70 ft / 21 m 5,085 ft / 1,550 m 100.84° 92.12° Asphalt 0 ft / 0 m 0 ft / 0 m
27 70 ft / 21 m 5,085 ft / 1,550 m 280.85° 272.13° Asphalt 0 ft / 0 m 0 ft / 0 m

Map

Weather


0- 5 10 15 20 25 30 35+ Temperature / ° C

Clouds and Precipitation
Forecast for 2017-12-12 06:00 UTC. Updated 2 hours ago

Ground ~20,000 ft ~40,000 ft Winds

METAR

KGNB 120510Z AUTO 00000KT 10SM CLR M07/M12 A3057 RMK AO2 T10741125

TAF

Not found

Frequencies

Recorded 119.92 MHz AWOS 1
Unicom 123.00 MHz CTAF/UNICOM
Warning: Do not use this data for real-world aviation or navigation. No guarantee of current accuracy is given.